Aeroporto :
LOGIN :

Iscrizione | Disclaimer

   EN    FR    IT 

 










Sommario :    VFR   VFR Marginale   IFR   IFR Intensivo   IFR Molto Intensivo
Visibilità : 
Base nubi : 
>= 8 km
>= 3000ft
5 / 8 km
1000 / 3000 ft
1500m / 5 km
500 / 1000 ft
800 / 1500m
200 / 500 ft
< 800m
< 200 ft
Simboli :   Temporali  Nebbia  Neve Forte  Precipitazioni Forti  Vento > 20 kt
SIGMETs :   Varie  Temporali  Ghiacco  Turbolenza  Onda orograficha  Ceneri Vulcaniche






- Altitudine del aeroporto : 870 ft
- Codice IATA : ETZ


LFJL - Metz Nancy Lorraine

ULTIMO METAR :
  • 251500Z AUTO 25017KT 9999 FEW027 SCT038 BKN047 09/03 Q1003 TEMPO 27015G30KT 3000 SHRA BKN008 SCT020CB

METARs OBSOLETI :
  • 251430Z AUTO 26014KT 9999 FEW021 09/04 Q1003 TEMPO 27015G30KT 3000 SHRA BKN008 SCT020CB
  • 251400Z AUTO 26015KT 9999 SCT012 BKN018 BKN034 08/06 Q1003 TEMPO 27015G30KT 3000 SHRA BKN008 SCT020CB
  • 251330Z AUTO 24012KT 9999 BKN009 OVC014 08/06 Q1003 TEMPO 27015G30KT 3000 SHRA SCT020CB
  • 251300Z AUTO 24014KT 5000 -DZ BR SCT008 BKN014 OVC022 07/06 Q1004 TEMPO 27015G30KT SHRA SCT020CB
  • 251230Z AUTO 24013KT 9999 BKN018/// OVC025/// ///TCU 07/05 Q1004 TEMPO 27015G30KT 3000 SHRA SCT020CB

TAF AMD TAF LFJL
Valido dal 25 a 13 ore il 26 a 12 ore UTC


251326Z 2513/2612 24015KT 9999 FEW010 BKN030
TEMPO 2513/2518 27015G30KT 3000 SHRA BKN008 SCT020CB
TEMPO 2518/2612 27015G30KT 2000 SHRAGS BKN008 SCT020CB



MetMap, La meteo Aeronautica in un colpo d'occhio ! - Copyright ORBIFLY Dicembre 2007 - Disclaimer

ORBIFLY MET'MAP TEAM :

Programmazione e sviluppo : Alexandra Zaïnal
Concezione : Baudouin d'Aumeries
Aiuto per la programmazione : Marc-Olivier Méhu
Supporto tecnico e logistico : Manuel Goepfert
Aiuto per la traduzione : Arnaldo La Scala

Contatto : metmap@orbifly.com




FONTI E CREDITI :

   NOAA